Pagrindinis puslapis
METAR-TAF:

METAR-TAF

Oro uostai :

Alamosa, Koloradas, Jungtinės Amerikos Valstijos

platuma: 37-26-20N, ilguma: 105-51-41W, Aukštis: 2297 m

Dabartinis oras

Ataskaita buvo paskelbta 1 valandą ir 12 minutes, ne 15:52 UTC
Ramus vėjas
Temperatūra -2°C
Drėgmė 46%
Slėgis 1024 hPa
Matomumas: 16.1 km
Giedras dangus

METAR: KALS 271552Z AUTO 00000KT 10SM CLR M02/M12 A3025 RMK AO2 SLP266 T10221122 $

Laikas: 10:04 (17:04 UTC)

Prognozė

Ataskaita buvo paskelbta 5 valandos ir 26 minutes, ne 11:38 UTC
Prognozė galioja nuo 27 metu 12 UTC su 28 metu 12 UTC
Vėjas 4 kt nuo kintamojo kryptimis
Matomumas: 10 km
Mažai debesys ne aukštis 25000 ft
Nuo 27 metu 1800 UTC
Vėjas 6 kt iš Vakarų/Šiaurės Vakarų
Matomumas: 10 km
Mažai debesys ne aukštis 25000 ft
Nuo 28 metu 0200 UTC
Vėjas 4 kt nuo kintamojo kryptimis
Matomumas: 10 km
Išsisklaidę debesys ne aukštis 25000 ft

TAF: KALS 271138Z 2712/2812 VRB04KT P6SM FEW250 FM271800 30006KT P6SM FEW250 FM280200 VRB04KT P6SM SCT250

Orai ataskaitas ir orų prognozės (METAR, TAF).

turimą stotys yra geltonos ir raudonos taškus žemėlapyje.

Perkelti pele per norėdami pamatyti stoties vardą.

Tada spustelėkite, norėdami matyti oro stebėjimo ir prognozės.

Norėdami pakeisti žemėlapį: spustelėkite ant žalios mygtukų su juodo kryžiaus žemyn,; žalią mygtuką su brūkšneliu, jei norite nutolinti; arba žalių rodyklių gretimoms žemėlapius.


METAR-TAF: